Time;durP1;ratioP1;P1;durP2;ratioP2;P2;SDS_P1;SDS_P2;PMS_P1;PMS_P2;Temp;Humidity;BMP_temperature;BMP_pressure;BME280_temperature;BME280_humidity;BME280_pressure;Samples;Min_cycle;Max_cycle;Signal;HPM_P1;HPM_P2
2022/04/08 00:01:26;;;;;;;5.53;1.53;;;;;;;8.26;94.50;97157.03;4185936;28;20236;-63
2022/04/08 00:03:54;;;;;;;5.73;1.90;;;;;;;8.29;94.65;97153.16;4193168;28;20270;-63
2022/04/08 00:06:21;;;;;;;4.13;1.47;;;;;;;8.31;93.98;97148.47;4167486;28;21098;-63
2022/04/08 00:08:48;;;;;;;4.00;1.40;;;;;;;8.30;94.13;97160.09;4180489;28;20239;-63
2022/04/08 00:11:15;;;;;;;3.07;1.50;;;;;;;8.35;93.52;97161.06;4189391;28;22799;-64
2022/04/08 00:13:42;;;;;;;5.97;1.50;;;;;;;8.32;93.54;97172.09;4188425;28;20241;-63
2022/04/08 00:16:09;;;;;;;2.97;1.20;;;;;;;8.31;93.29;97174.94;4200736;28;20503;-64
2022/04/08 00:18:36;;;;;;;2.80;1.30;;;;;;;8.36;93.45;97168.00;4197313;28;20304;-65
2022/04/08 00:21:03;;;;;;;4.17;1.17;;;;;;;8.34;93.56;97167.41;4181169;28;20240;-63
2022/04/08 00:23:30;;;;;;;4.27;1.50;;;;;;;8.35;93.30;97170.88;4176975;28;20226;-62
2022/04/08 00:25:57;;;;;;;4.40;1.40;;;;;;;8.35;92.71;97171.66;4190383;28;20656;-63
2022/04/08 00:28:23;;;;;;;6.03;1.53;;;;;;;8.33;91.98;97168.41;4195184;28;21295;-64
2022/04/08 00:30:50;;;;;;;2.93;1.17;;;;;;;8.39;92.10;97167.56;4192117;28;20312;-63
2022/04/08 00:33:16;;;;;;;5.07;1.60;;;;;;;8.38;91.07;97142.13;4174971;28;21709;-68
2022/04/08 00:35:43;;;;;;;3.20;1.27;;;;;;;8.31;91.03;97138.69;4175045;28;20395;-63
2022/04/08 00:38:09;;;;;;;4.97;1.33;;;;;;;8.35;90.80;97136.41;4171890;28;20311;-64
2022/04/08 00:40:36;;;;;;;6.77;2.00;;;;;;;8.34;90.40;97134.81;4177067;28;20654;-64
2022/04/08 00:43:17;;;;;;;5.83;1.80;;;;;;;8.36;89.99;97122.16;4191182;28;20306;-66
2022/04/08 00:45:44;;;;;;;5.27;1.53;;;;;;;8.42;89.49;97145.19;4196008;28;20325;-65
2022/04/08 00:48:11;;;;;;;5.07;1.57;;;;;;;8.39;89.91;97132.34;4192864;28;20360;-63
2022/04/08 00:50:39;;;;;;;5.07;1.30;;;;;;;8.32;90.03;97136.84;4189095;28;21962;-64
2022/04/08 00:53:07;;;;;;;4.07;1.37;;;;;;;8.35;89.80;97131.94;4189128;28;21248;-63
2022/04/08 00:55:34;;;;;;;3.17;1.20;;;;;;;8.39;89.58;97133.13;4191334;28;20228;-63
2022/04/08 00:58:02;;;;;;;3.40;1.10;;;;;;;8.35;89.51;97139.88;4187899;28;20364;-64
2022/04/08 01:00:33;;;;;;;3.70;1.40;;;;;;;8.36;89.11;97141.53;4164454;28;21746;-67
2022/04/08 01:03:00;;;;;;;4.60;1.57;;;;;;;8.33;89.43;97133.97;4177411;28;20686;-62
2022/04/08 01:05:27;;;;;;;2.87;1.30;;;;;;;8.38;89.25;97149.22;4172608;28;20686;-63
2022/04/08 01:07:55;;;;;;;5.80;1.47;;;;;;;8.29;88.91;97140.75;4187343;28;20246;-63
2022/04/08 01:10:22;;;;;;;4.07;1.40;;;;;;;8.35;89.15;97149.66;4194017;28;20299;-64
2022/04/08 01:12:49;;;;;;;3.23;1.50;;;;;;;8.38;88.68;97143.94;4148804;28;20245;-64
2022/04/08 01:15:20;;;;;;;9.13;1.53;;;;;;;8.42;88.16;97159.22;4172297;28;20249;-67
2022/04/08 01:17:47;;;;;;;2.37;1.30;;;;;;;8.32;88.38;97158.06;4183963;28;20241;-64
2022/04/08 01:20:14;;;;;;;1.87;1.00;;;;;;;8.35;88.34;97166.38;4179082;28;20252;-63
2022/04/08 01:22:41;;;;;;;4.77;1.47;;;;;;;8.39;87.73;97175.53;4176736;28;20245;-63
2022/04/08 01:25:09;;;;;;;3.80;1.20;;;;;;;8.34;87.82;97175.34;4181288;28;27182;-63
2022/04/08 01:27:36;;;;;;;4.33;1.33;;;;;;;8.30;87.65;97184.75;4185948;28;23702;-64
2022/04/08 01:30:05;;;;;;;4.40;1.50;;;;;;;8.27;87.48;97177.22;4182209;28;20663;-66
2022/04/08 01:32:31;;;;;;;3.63;1.33;;;;;;;8.24;86.92;97189.06;4191554;28;20267;-63
2022/04/08 01:34:58;;;;;;;2.83;1.23;;;;;;;8.14;86.81;97177.28;4200281;28;20700;-62
2022/04/08 01:37:25;;;;;;;4.77;1.73;;;;;;;8.15;87.21;97190.31;4191838;28;20231;-64
2022/04/08 01:39:51;;;;;;;2.83;1.33;;;;;;;8.22;87.07;97185.81;4180801;28;20302;-64
2022/04/08 01:42:22;;;;;;;3.97;1.30;;;;;;;8.27;86.96;97195.75;4178040;28;21632;-64
2022/04/08 01:44:49;;;;;;;5.13;1.57;;;;;;;8.23;86.75;97192.72;4191906;28;20740;-64
2022/04/08 01:47:15;;;;;;;2.30;1.30;;;;;;;8.23;86.55;97194.56;4202906;28;20992;-63
2022/04/08 01:49:42;;;;;;;3.47;1.30;;;;;;;8.17;86.34;97203.31;4182330;28;20224;-64
2022/04/08 01:52:08;;;;;;;3.90;1.17;;;;;;;7.99;86.79;97202.16;4189372;28;21457;-65
2022/04/08 01:54:35;;;;;;;2.97;1.20;;;;;;;7.89;86.54;97208.91;4175410;28;20242;-66
2022/04/08 01:57:02;;;;;;;4.90;1.80;;;;;;;7.85;85.18;97213.81;4193172;28;20426;-62
2022/04/08 01:59:29;;;;;;;4.80;1.63;;;;;;;7.81;83.37;97209.94;4162923;28;20241;-65
2022/04/08 02:01:55;;;;;;;3.00;1.30;;;;;;;7.71;83.58;97217.50;4182080;28;20455;-65
2022/04/08 02:04:22;;;;;;;4.07;1.20;;;;;;;7.73;80.82;97215.47;4187343;28;20247;-64
2022/04/08 02:06:48;;;;;;;6.90;1.60;;;;;;;7.71;79.94;97230.75;4177982;28;21174;-64
2022/04/08 02:09:15;;;;;;;4.83;1.30;;;;;;;7.68;78.55;97239.06;4188401;28;20338;-64
2022/04/08 02:11:43;;;;;;;6.03;1.40;;;;;;;7.66;79.28;97235.84;4195202;28;20228;-63
2022/04/08 02:14:09;;;;;;;8.20;1.80;;;;;;;7.64;78.51;97227.28;4185509;28;20238;-64
2022/04/08 02:16:36;;;;;;;5.70;1.40;;;;;;;7.59;77.13;97223.44;4190483;28;20244;-64
2022/04/08 02:19:02;;;;;;;5.73;1.70;;;;;;;7.63;75.66;97230.94;4187654;28;20245;-65
2022/04/08 02:21:30;;;;;;;4.80;1.30;;;;;;;7.60;77.27;97238.28;4179408;28;20293;-63
2022/04/08 02:23:57;;;;;;;7.03;1.30;;;;;;;7.54;77.43;97249.69;4181911;28;21019;-64
2022/04/08 02:26:23;;;;;;;6.77;1.33;;;;;;;7.48;77.41;97239.09;4154776;28;20290;-67
2022/04/08 02:28:50;;;;;;;5.03;1.43;;;;;;;7.47;77.66;97242.75;4174037;28;20398;-64
2022/04/08 02:31:16;;;;;;;3.53;1.33;;;;;;;7.42;77.06;97230.13;4189841;28;20380;-65
2022/04/08 02:33:43;;;;;;;5.17;1.27;;;;;;;7.38;78.44;97240.31;4187333;28;21857;-66
2022/04/08 02:36:10;;;;;;;3.37;1.20;;;;;;;7.36;78.70;97241.53;4184288;28;20246;-63
2022/04/08 02:38:36;;;;;;;6.13;1.60;;;;;;;7.34;78.33;97243.56;4164544;28;25995;-65
2022/04/08 02:41:02;;;;;;;5.93;1.37;;;;;;;7.25;79.03;97239.50;4190348;28;21690;-65
2022/04/08 02:43:29;;;;;;;6.40;1.47;;;;;;;7.23;78.54;97247.63;4188858;28;21519;-65
2022/04/08 02:45:55;;;;;;;6.40;1.70;;;;;;;7.17;78.79;97251.91;4195655;28;20267;-65
2022/04/08 02:48:22;;;;;;;3.00;1.40;;;;;;;7.16;78.49;97255.56;4184812;28;20238;-64
2022/04/08 02:50:49;;;;;;;4.60;1.40;;;;;;;7.18;78.80;97250.88;4199433;28;20430;-65
2022/04/08 02:53:15;;;;;;;5.17;1.47;;;;;;;7.22;78.90;97259.22;4192445;28;20304;-64
2022/04/08 02:55:42;;;;;;;6.60;1.53;;;;;;;7.21;78.15;97264.72;4182154;28;20312;-64
2022/04/08 02:58:08;;;;;;;5.60;1.57;;;;;;;7.22;77.82;97261.06;4187417;28;20285;-65
2022/04/08 03:00:35;;;;;;;6.20;1.40;;;;;;;7.23;77.82;97254.75;4191098;28;20236;-65
2022/04/08 03:03:01;;;;;;;5.80;1.20;;;;;;;7.22;78.52;97261.06;4191952;28;27412;-64
2022/04/08 03:05:29;;;;;;;6.97;1.57;;;;;;;7.30;77.88;97263.50;4175266;28;20360;-64
2022/04/08 03:07:55;;;;;;;5.07;1.20;;;;;;;7.25;78.61;97265.94;4165191;28;20310;-65
2022/04/08 03:10:22;;;;;;;7.93;1.30;;;;;;;7.17;77.69;97264.31;4184438;28;20289;-65
2022/04/08 03:12:48;;;;;;;5.47;1.30;;;;;;;7.11;78.14;97255.34;4165639;28;21266;-64
2022/04/08 03:15:15;;;;;;;7.30;1.40;;;;;;;7.14;78.07;97270.00;4178693;28;20236;-64
2022/04/08 03:17:41;;;;;;;4.73;1.17;;;;;;;7.19;77.46;97264.94;4182196;28;22811;-66
2022/04/08 03:20:08;;;;;;;8.83;1.57;;;;;;;7.13;76.96;97276.31;4172829;28;22732;-64
2022/04/08 03:22:35;;;;;;;4.33;1.40;;;;;;;7.13;77.09;97268.38;4180319;28;23819;-65
2022/04/08 03:25:01;;;;;;;6.47;1.50;;;;;;;7.16;77.34;97274.09;4191983;28;20426;-65
2022/04/08 03:27:29;;;;;;;7.27;1.43;;;;;;;7.13;77.01;97277.13;4190387;28;20248;-66
2022/04/08 03:29:55;;;;;;;6.80;1.43;;;;;;;7.10;77.10;97272.25;4185497;28;20332;-65
2022/04/08 03:32:22;;;;;;;6.50;1.30;;;;;;;7.11;77.25;97279.13;4166381;28;20244;-65
2022/04/08 03:34:57;;;;;;;7.27;1.50;;;;;;;7.13;76.73;97276.31;4179224;28;20274;-64
2022/04/08 03:37:25;;;;;;;7.37;1.57;;;;;;;7.11;77.18;97270.41;4171307;28;21938;-67
2022/04/08 03:39:53;;;;;;;4.63;1.47;;;;;;;7.13;76.34;97274.47;4182555;28;20354;-65
2022/04/08 03:42:20;;;;;;;5.60;1.40;;;;;;;7.10;76.21;97274.06;4181946;28;20241;-65
2022/04/08 03:44:46;;;;;;;3.07;1.20;;;;;;;7.10;75.79;97285.47;4184317;28;20230;-66
2022/04/08 03:47:13;;;;;;;7.33;1.43;;;;;;;7.14;74.85;97286.69;4177285;28;20229;-65
2022/04/08 03:49:39;;;;;;;6.90;1.50;;;;;;;7.15;73.61;97283.03;4194071;28;21513;-65
2022/04/08 03:52:08;;;;;;;5.63;1.20;;;;;;;7.09;74.47;97278.53;4182422;28;20484;-65
2022/04/08 03:54:36;;;;;;;4.40;1.00;;;;;;;7.08;74.36;97282.19;4175596;28;25198;-66
2022/04/08 03:57:03;;;;;;;7.77;1.60;;;;;;;7.03;74.48;97283.81;4175787;28;20408;-64
2022/04/08 03:59:30;;;;;;;5.90;1.40;;;;;;;7.06;76.71;97318.59;4190301;28;20303;-65
2022/04/08 04:01:56;;;;;;;8.17;1.60;;;;;;;6.59;80.38;97304.41;4184059;28;20257;-66
2022/04/08 04:04:23;;;;;;;10.77;1.80;;;;;;;6.42;83.08;97297.84;4189122;28;20228;-65
2022/04/08 04:06:50;;;;;;;7.23;1.67;;;;;;;6.16;83.21;97293.19;4196797;28;20229;-66
2022/04/08 04:09:17;;;;;;;10.40;1.83;;;;;;;6.17;84.53;97298.31;4197423;28;20241;-64
2022/04/08 04:11:43;;;;;;;8.83;2.70;;;;;;;6.09;86.03;97309.84;4200018;28;21152;-66
2022/04/08 04:14:10;;;;;;;11.57;1.70;;;;;;;5.87;87.97;97309.03;4190645;28;20841;-66
2022/04/08 04:16:36;;;;;;;9.63;1.90;;;;;;;5.85;89.96;97310.22;4181083;28;23512;-66
2022/04/08 04:19:03;;;;;;;14.07;2.10;;;;;;;5.91;90.25;97314.75;4182347;28;20350;-65
2022/04/08 04:21:30;;;;;;;11.50;2.37;;;;;;;6.15;87.60;97320.63;4171282;28;20300;-65
2022/04/08 04:23:56;;;;;;;6.17;2.17;;;;;;;6.33;nan;97308.53;4192849;28;20223;-65
2022/04/08 04:26:23;;;;;;;10.40;1.70;;;;;;;6.41;83.70;97312.84;4197715;28;22076;-66
2022/04/08 04:28:50;;;;;;;11.33;2.30;;;;;;;6.55;83.02;97327.78;4179108;28;20296;-68
2022/04/08 04:31:16;;;;;;;9.47;1.90;;;;;;;6.61;82.70;97328.81;4186446;28;20250;-66
2022/04/08 04:33:43;;;;;;;9.40;2.10;;;;;;;6.68;81.29;97327.00;4175936;28;20230;-64
2022/04/08 04:36:13;;;;;;;7.43;1.67;;;;;;;6.72;80.63;97324.78;4175765;28;22950;-65
2022/04/08 04:38:39;;;;;;;7.70;1.80;;;;;;;6.85;79.10;97339.88;4176356;28;20238;-65
2022/04/08 04:41:06;;;;;;;14.77;2.73;;;;;;;6.86;79.99;97330.91;4194052;28;20443;-65
2022/04/08 04:43:32;;;;;;;7.53;1.50;;;;;;;6.65;80.86;97337.13;4174605;28;21858;-65
2022/04/08 04:45:59;;;;;;;9.40;1.80;;;;;;;6.67;80.03;97335.97;4194907;28;20308;-66
2022/04/08 04:48:26;;;;;;;6.93;1.40;;;;;;;6.65;80.77;97330.06;4190843;28;20512;-66
2022/04/08 04:50:54;;;;;;;7.47;1.67;;;;;;;6.64;79.11;97344.25;4173518;28;23004;-65
2022/04/08 04:53:21;;;;;;;5.00;1.53;;;;;;;6.62;80.07;97348.91;4200152;28;20243;-65
2022/04/08 04:55:47;;;;;;;4.50;1.30;;;;;;;6.67;80.43;97345.69;4215799;28;20929;-64
2022/04/08 04:58:14;;;;;;;6.77;1.73;;;;;;;6.81;79.44;97354.50;4203133;28;20659;-66
2022/04/08 05:00:41;;;;;;;8.97;1.60;;;;;;;6.97;77.96;97367.38;4201136;28;21813;-64
2022/04/08 05:03:08;;;;;;;6.13;1.80;;;;;;;6.96;78.78;97358.63;4187114;28;20314;-68
2022/04/08 05:05:35;;;;;;;9.97;1.60;;;;;;;6.97;78.92;97365.53;4204023;28;20238;-65
2022/04/08 05:08:07;;;;;;;7.13;1.50;;;;;;;6.95;79.22;97374.69;4214791;28;20232;-66
2022/04/08 05:10:33;;;;;;;11.53;2.10;;;;;;;6.89;80.14;97375.47;4211084;28;20231;-66
2022/04/08 05:13:00;;;;;;;5.17;1.60;;;;;;;6.72;80.17;97383.75;4219741;28;20263;-66
2022/04/08 05:15:28;;;;;;;9.87;1.67;;;;;;;6.50;82.26;97379.53;4202368;28;20241;-69
2022/04/08 05:17:57;;;;;;;4.23;1.50;;;;;;;6.36;82.35;97378.66;4207355;28;20296;-66
2022/04/08 05:20:24;;;;;;;7.63;1.70;;;;;;;6.40;81.76;97384.38;4193693;28;25423;-66
2022/04/08 05:22:51;;;;;;;6.60;1.47;;;;;;;6.40;82.47;97379.09;4192451;28;20228;-65
2022/04/08 05:25:17;;;;;;;5.07;1.43;;;;;;;6.50;83.32;97379.53;4187258;28;20243;-66
2022/04/08 05:27:44;;;;;;;13.13;1.60;;;;;;;6.60;81.92;97382.63;4174118;28;20241;-64
2022/04/08 05:30:13;;;;;;;7.70;1.30;;;;;;;6.73;81.16;97384.56;4188801;28;20244;-66
2022/04/08 05:32:40;;;;;;;7.13;1.60;;;;;;;6.76;80.66;97394.72;4210387;28;20677;-66
2022/04/08 05:35:07;;;;;;;5.40;1.40;;;;;;;6.81;80.44;97402.06;4195927;28;20271;-68
2022/04/08 05:37:42;;;;;;;8.60;1.50;;;;;;;6.80;79.44;97400.44;4189732;28;20239;-68
2022/04/08 05:40:20;;;;;;;5.40;1.47;;;;;;;6.84;78.67;97406.97;4195808;28;20244;-70
2022/04/08 05:42:48;;;;;;;6.63;1.40;;;;;;;6.89;75.26;97393.97;4203541;28;20610;-69
2022/04/08 05:45:18;;;;;;;4.87;1.13;;;;;;;6.87;76.13;97401.28;4204848;28;21638;-68
2022/04/08 05:47:47;;;;;;;4.03;1.50;;;;;;;6.88;75.38;97387.06;4216870;28;22103;-69
2022/04/08 05:50:14;;;;;;;4.00;1.13;;;;;;;6.93;74.58;97403.97;4184885;28;21486;-66
2022/04/08 05:52:41;;;;;;;3.23;1.00;;;;;;;7.08;74.22;97408.28;4197632;28;20233;-67
2022/04/08 05:55:08;;;;;;;6.57;1.60;;;;;;;7.12;74.32;97401.59;4184464;28;20254;-67
2022/04/08 05:57:40;;;;;;;6.07;1.77;;;;;;;7.17;72.68;97415.84;4192904;28;21879;-67
2022/04/08 06:00:10;;;;;;;3.40;1.37;;;;;;;7.10;73.38;97409.72;4200453;28;20241;-64
2022/04/08 06:02:37;;;;;;;5.83;1.53;;;;;;;6.93;74.24;97413.69;4190376;28;20281;-66
2022/04/08 06:05:05;;;;;;;5.00;1.37;;;;;;;6.92;74.02;97410.25;4185330;28;20624;-70
2022/04/08 06:07:31;;;;;;;4.83;1.50;;;;;;;6.86;74.79;97420.78;4193023;28;20268;-64
2022/04/08 06:10:02;;;;;;;7.33;2.10;;;;;;;6.94;73.39;97428.56;4196587;28;20220;-67
2022/04/08 06:12:29;;;;;;;4.93;1.30;;;;;;;6.99;73.98;97420.84;4179265;28;20228;-65
2022/04/08 06:14:56;;;;;;;6.00;1.30;;;;;;;6.93;74.74;97434.84;4193776;28;20391;-65
2022/04/08 06:17:22;;;;;;;4.77;1.20;;;;;;;6.84;76.50;97417.56;4173458;28;20314;-66
2022/04/08 06:19:50;;;;;;;4.57;1.20;;;;;;;6.90;75.30;97416.75;4181734;28;21170;-65
2022/04/08 06:22:17;;;;;;;8.87;1.60;;;;;;;6.91;74.33;97428.97;4191271;28;20240;-66
2022/04/08 06:24:44;;;;;;;6.27;1.57;;;;;;;6.94;74.42;97423.28;4176536;28;20740;-64
2022/04/08 06:27:10;;;;;;;4.70;1.13;;;;;;;7.03;72.86;97430.03;4173395;28;20224;-65
2022/04/08 06:29:38;;;;;;;6.57;1.20;;;;;;;7.03;73.42;97427.41;4197568;28;20256;-64
2022/04/08 06:32:05;;;;;;;4.67;1.20;;;;;;;6.96;73.38;97450.34;4188875;28;20239;-64
2022/04/08 06:34:31;;;;;;;7.10;1.30;;;;;;;6.73;76.73;97475.22;4198657;28;22731;-65
2022/04/08 06:36:58;;;;;;;4.00;1.50;;;;;;;6.39;81.98;97520.06;4192885;28;20236;-64
2022/04/08 06:39:25;;;;;;;4.67;1.37;;;;;;;5.33;91.10;97488.09;4187905;28;20235;-66
2022/04/08 06:41:51;;;;;;;3.70;1.40;;;;;;;4.79;96.42;97484.75;4174069;28;20714;-65
2022/04/08 06:44:18;;;;;;;7.07;1.50;;;;;;;4.67;99.58;97503.81;4173213;28;20679;-63
2022/04/08 06:46:45;;;;;;;5.67;1.33;;;;;;;4.66;98.96;97500.38;4232599;28;20862;-64
2022/04/08 06:49:12;;;;;;;6.77;1.70;;;;;;;4.82;99.20;97502.00;4191989;28;25614;-64
2022/04/08 06:51:38;;;;;;;3.97;1.60;;;;;;;4.96;99.38;97509.09;4215327;28;20436;-64
2022/04/08 06:54:05;;;;;;;7.47;1.87;;;;;;;5.31;96.88;97516.44;4216877;28;20224;-64
2022/04/08 06:56:31;;;;;;;5.10;1.47;;;;;;;5.46;95.54;97517.25;4205810;28;21596;-63
2022/04/08 06:58:58;;;;;;;6.53;1.50;;;;;;;5.56;94.79;97514.31;4187906;28;20293;-63
2022/04/08 07:01:26;;;;;;;6.23;1.67;;;;;;;5.73;93.20;97513.09;4201371;28;22135;-65
2022/04/08 07:03:53;;;;;;;9.83;2.00;;;;;;;5.97;91.87;97516.41;4189141;28;20492;-64
2022/04/08 07:06:19;;;;;;;5.93;1.73;;;;;;;6.21;89.50;97534.53;4201484;28;21680;-64
2022/04/08 07:08:46;;;;;;;6.90;2.00;;;;;;;6.39;88.07;97512.13;4222689;28;20797;-65
2022/04/08 07:11:14;;;;;;;5.23;1.70;;;;;;;6.81;86.22;97540.31;4203858;28;20240;-68
2022/04/08 07:13:43;;;;;;;8.73;2.13;;;;;;;7.24;83.80;97536.75;4223828;28;20238;-68
2022/04/08 07:16:10;;;;;;;4.03;1.27;;;;;;;6.96;81.73;97542.88;4229729;28;20240;-67
2022/04/08 07:18:37;;;;;;;5.53;1.50;;;;;;;6.95;82.10;97536.78;4201159;28;20240;-67
2022/04/08 07:21:04;;;;;;;4.27;1.40;;;;;;;7.00;79.91;97544.13;4183754;28;20248;-64
2022/04/08 07:23:32;;;;;;;5.33;1.27;;;;;;;7.10;78.15;97557.81;4214540;28;21674;-68
2022/04/08 07:26:01;;;;;;;4.63;1.23;;;;;;;7.23;78.19;97543.03;4256028;28;20657;-65
2022/04/08 07:28:32;;;;;;;2.97;0.83;;;;;;;7.48;74.88;97580.41;4220720;28;22246;-67
2022/04/08 07:30:59;;;;;;;6.70;1.40;;;;;;;8.28;75.85;97572.75;4222157;28;22777;-65
2022/04/08 07:33:30;;;;;;;3.77;1.20;;;;;;;8.44;71.10;97591.75;4220446;28;20232;-63
2022/04/08 07:35:58;;;;;;;3.40;1.13;;;;;;;7.74;74.41;97600.88;4216461;28;21918;-62
2022/04/08 07:38:25;;;;;;;2.47;1.20;;;;;;;7.79;73.64;97590.50;4212308;28;25562;-61
2022/04/08 07:40:52;;;;;;;3.67;1.40;;;;;;;7.75;75.03;97599.84;4210840;28;20240;-68
2022/04/08 07:43:19;;;;;;;4.70;1.20;;;;;;;7.56;74.71;97602.22;4194880;28;20855;-64
2022/04/08 07:45:46;;;;;;;5.97;1.30;;;;;;;7.40;74.54;97598.06;4209951;28;20271;-67
2022/04/08 07:48:12;;;;;;;5.53;1.30;;;;;;;7.44;73.86;97610.91;4244536;28;20284;-62
2022/04/08 07:50:41;;;;;;;4.00;1.23;;;;;;;7.60;74.39;97624.63;4203266;28;21149;-63
2022/04/08 07:53:08;;;;;;;3.53;1.40;;;;;;;7.91;73.09;97626.00;4228172;28;20291;-64
2022/04/08 07:55:35;;;;;;;3.80;0.93;;;;;;;8.23;72.36;97631.63;4220727;28;20235;-65
2022/04/08 07:58:04;;;;;;;4.43;1.03;;;;;;;8.08;72.20;97641.53;4201260;28;23017;-67
2022/04/08 08:00:34;;;;;;;3.90;0.90;;;;;;;8.11;70.17;97615.50;4197013;28;21199;-66
2022/04/08 08:03:01;;;;;;;3.03;1.20;;;;;;;8.12;70.59;97640.13;4239159;28;20229;-68
2022/04/08 08:05:28;;;;;;;2.63;1.00;;;;;;;8.04;70.29;97652.53;4204228;28;20233;-68
2022/04/08 08:07:57;;;;;;;2.57;1.13;;;;;;;7.97;71.97;97646.41;4261708;28;20335;-70
2022/04/08 08:10:25;;;;;;;2.50;1.20;;;;;;;7.89;72.29;97667.75;4190219;28;20706;-73
2022/04/08 08:12:53;;;;;;;3.47;1.40;;;;;;;8.19;71.38;97675.41;4193902;28;20693;-68
2022/04/08 08:15:21;;;;;;;5.43;1.53;;;;;;;8.21;70.57;97668.09;4209478;28;20233;-67
2022/04/08 08:17:48;;;;;;;4.73;2.00;;;;;;;8.12;69.94;97674.56;4240280;28;20322;-70
2022/04/08 08:20:16;;;;;;;4.33;1.63;;;;;;;7.98;70.85;97674.53;4229181;28;21442;-69
2022/04/08 08:22:43;;;;;;;3.73;1.30;;;;;;;7.91;70.52;97694.84;4231385;28;21557;-68
2022/04/08 08:25:11;;;;;;;3.93;1.37;;;;;;;8.07;70.02;97685.75;4284416;28;20236;-67
2022/04/08 08:27:39;;;;;;;2.40;0.93;;;;;;;8.08;67.76;97686.56;4280857;28;20279;-66
2022/04/08 08:30:10;;;;;;;2.70;0.80;;;;;;;8.33;67.91;97695.63;4257309;28;20229;-68
2022/04/08 08:32:41;;;;;;;2.13;0.90;;;;;;;8.25;66.37;97696.63;4241539;28;21859;-68
2022/04/08 08:35:09;;;;;;;1.57;0.90;;;;;;;8.29;66.49;97697.06;4240599;28;20238;-69
2022/04/08 08:37:36;;;;;;;2.60;1.03;;;;;;;8.72;65.79;97701.31;4289261;28;20444;-66
2022/04/08 08:40:06;;;;;;;1.90;1.00;;;;;;;9.28;65.18;97709.75;4222670;28;21377;-67
2022/04/08 08:42:35;;;;;;;3.37;1.00;;;;;;;9.09;65.56;97714.03;4225610;28;20424;-74
2022/04/08 08:45:03;;;;;;;6.10;1.43;;;;;;;9.22;65.13;97721.16;4237767;28;22831;-68
2022/04/08 08:47:31;;;;;;;5.13;1.17;;;;;;;9.18;64.07;97721.78;4340085;28;20238;-68
2022/04/08 08:50:00;;;;;;;2.17;1.07;;;;;;;9.16;64.90;97721.19;4244116;28;20234;-68
2022/04/08 08:52:31;;;;;;;2.83;1.00;;;;;;;9.04;64.11;97731.56;4241364;28;20695;-68
2022/04/08 08:54:59;;;;;;;6.00;1.30;;;;;;;8.66;65.35;97724.13;4255469;28;20237;-64
2022/04/08 08:57:26;;;;;;;4.10;1.00;;;;;;;8.39;65.54;97742.56;4199330;28;20232;-68
2022/04/08 08:59:56;;;;;;;3.57;1.10;;;;;;;8.30;65.71;97741.09;4199020;28;21203;-66
2022/04/08 09:02:23;;;;;;;4.73;1.50;;;;;;;8.28;67.64;97752.91;4166905;28;20646;-66
2022/04/08 09:04:49;;;;;;;2.33;1.10;;;;;;;8.25;68.31;97752.28;4216888;28;21506;-69
2022/04/08 09:07:32;;;;;;;5.17;1.27;;;;;;;8.27;69.00;97761.88;4211423;28;20241;-66
2022/04/08 09:09:58;;;;;;;1.53;1.03;;;;;;;8.35;66.62;97767.00;4195560;28;20237;-68
2022/04/08 09:12:27;;;;;;;2.30;0.80;;;;;;;8.48;66.11;97753.03;4206019;28;20232;-67
2022/04/08 09:14:56;;;;;;;3.30;1.23;;;;;;;8.61;64.43;97772.44;4229618;28;20281;-66
2022/04/08 09:17:24;;;;;;;2.73;0.77;;;;;;;8.70;65.10;97766.97;4228019;28;20252;-65
2022/04/08 09:19:53;;;;;;;3.27;1.13;;;;;;;8.98;64.30;97769.50;4263204;28;20389;-67
2022/04/08 09:22:21;;;;;;;3.27;1.10;;;;;;;8.78;64.29;97772.06;4210568;28;20239;-67
2022/04/08 09:24:48;;;;;;;6.53;1.13;;;;;;;8.57;65.89;97784.47;4190267;28;20322;-67
2022/04/08 09:27:17;;;;;;;3.60;1.00;;;;;;;8.53;65.78;97782.41;4228729;28;21024;-67
2022/04/08 09:29:49;;;;;;;2.53;1.10;;;;;;;8.50;66.66;97769.53;4316717;28;21734;-68
2022/04/08 09:32:34;;;;;;;5.20;1.53;;;;;;;8.58;66.44;97796.69;4283008;28;20232;-67
2022/04/08 09:35:01;;;;;;;2.93;1.10;;;;;;;8.47;65.40;97786.66;4307893;28;25475;-69
2022/04/08 09:37:31;;;;;;;4.40;1.30;;;;;;;8.49;65.98;97797.06;4239255;28;20953;-69
2022/04/08 09:40:03;;;;;;;6.33;1.47;;;;;;;8.66;66.53;97808.94;4274431;28;20742;-66
2022/04/08 09:42:41;;;;;;;3.70;1.10;;;;;;;8.61;66.44;97790.16;4260651;28;20239;-67
2022/04/08 09:45:09;;;;;;;5.00;1.03;;;;;;;8.74;65.23;97806.16;4305219;28;20233;-67
2022/04/08 09:47:36;;;;;;;3.90;1.30;;;;;;;8.73;65.60;97803.69;4285834;28;21670;-67
2022/04/08 09:50:05;;;;;;;2.33;1.27;;;;;;;9.10;65.78;97805.03;4255010;28;20234;-69
2022/04/08 09:52:32;;;;;;;6.50;1.00;;;;;;;9.06;63.38;97806.44;4248048;28;20229;-66
2022/04/08 09:55:00;;;;;;;2.50;0.83;;;;;;;8.98;64.42;97819.91;4343875;28;20229;-67
2022/04/08 09:57:36;;;;;;;3.83;1.17;;;;;;;9.32;64.52;97823.44;4292372;28;20336;-66
2022/04/08 10:00:04;;;;;;;3.97;1.20;;;;;;;9.07;64.93;97829.31;4216372;28;22075;-66
2022/04/08 10:02:33;;;;;;;3.80;1.13;;;;;;;9.03;64.67;97839.50;4320071;28;20230;-68
2022/04/08 10:05:10;;;;;;;3.20;1.30;;;;;;;9.40;63.93;97820.59;4218288;28;20228;-66
2022/04/08 10:07:39;;;;;;;3.53;1.47;;;;;;;9.32;64.33;97821.63;4290428;28;21933;-66
2022/04/08 10:10:23;;;;;;;3.97;1.47;;;;;;;9.21;64.41;97833.63;4297323;28;20237;-67
2022/04/08 10:13:24;;;;;;;4.53;1.30;;;;;;;9.74;64.40;97822.28;4251595;28;20267;-63
2022/04/08 10:16:15;;;;;;;2.87;1.27;;;;;;;9.40;62.89;97826.72;4273715;28;20282;-66
2022/04/08 10:18:43;;;;;;;1.83;1.03;;;;;;;9.16;63.77;97836.06;4259349;28;21310;-64
2022/04/08 10:21:10;;;;;;;1.97;1.10;;;;;;;9.03;61.93;97833.38;4296975;28;20329;-65
2022/04/08 10:23:38;;;;;;;3.00;1.20;;;;;;;8.97;63.81;97834.19;4200282;28;21949;-65
2022/04/08 10:26:15;;;;;;;1.87;0.90;;;;;;;8.94;62.66;97848.63;4220303;28;21281;-66
2022/04/08 10:28:41;;;;;;;2.00;1.20;;;;;;;8.62;66.53;97850.16;4202305;28;20662;-66
2022/04/08 10:31:25;;;;;;;2.33;1.30;;;;;;;8.43;69.15;97857.78;4188585;28;21762;-69
2022/04/08 10:34:00;;;;;;;5.27;1.43;;;;;;;7.99;74.70;97839.53;4221005;28;21178;-65
2022/04/08 10:36:42;;;;;;;4.37;1.87;;;;;;;7.70;75.97;97845.78;4213474;28;20668;-65
2022/04/08 10:39:18;;;;;;;3.60;1.53;;;;;;;7.69;75.82;97850.28;4243952;28;21581;-66
2022/04/08 10:41:47;;;;;;;3.47;1.60;;;;;;;7.84;77.70;97884.59;4336312;28;20254;-65
2022/04/08 10:44:15;;;;;;;2.67;0.80;;;;;;;8.06;75.17;97892.56;4336762;28;20292;-65
2022/04/08 10:46:51;;;;;;;1.50;0.90;;;;;;;8.06;76.16;97898.66;4288896;28;20237;-68
2022/04/08 10:49:19;;;;;;;2.30;0.90;;;;;;;7.99;75.29;97895.94;4252586;28;20299;-65
2022/04/08 10:51:48;;;;;;;3.03;0.90;;;;;;;7.90;76.91;97905.03;4334470;28;21868;-64
2022/04/08 10:54:16;;;;;;;2.33;0.90;;;;;;;7.92;76.44;97913.63;4249365;28;20221;-64
2022/04/08 10:56:43;;;;;;;1.27;0.80;;;;;;;7.88;76.90;97912.34;4239496;28;20258;-65
2022/04/08 10:59:10;;;;;;;3.60;1.00;;;;;;;7.93;78.23;97912.59;4214134;28;20253;-68
2022/04/08 11:01:46;;;;;;;1.87;1.10;;;;;;;7.67;79.68;97946.75;4201907;28;20296;-66
2022/04/08 11:04:13;;;;;;;4.70;1.60;;;;;;;6.93;84.75;97974.13;4190090;28;20411;-65
2022/04/08 11:06:39;;;;;;;4.13;1.20;;;;;;;6.17;89.86;97971.56;4187897;28;20227;-68
2022/04/08 11:09:14;;;;;;;3.23;1.20;;;;;;;5.68;92.98;98004.38;4171623;28;20462;-67
2022/04/08 11:11:42;;;;;;;4.50;1.27;;;;;;;5.16;96.56;97985.69;4181069;28;22943;-66
2022/04/08 11:14:10;;;;;;;3.43;1.10;;;;;;;4.80;98.47;97978.22;4201334;28;20243;-66
2022/04/08 11:16:38;;;;;;;2.00;1.20;;;;;;;4.90;98.77;97978.84;4227444;28;20248;-66
2022/04/08 11:19:07;;;;;;;2.30;1.17;;;;;;;5.17;98.45;97982.84;4257870;28;20692;-66
2022/04/08 11:21:35;;;;;;;3.30;1.00;;;;;;;5.43;99.86;97979.97;4264872;28;20413;-65
2022/04/08 11:24:14;;;;;;;2.47;1.13;;;;;;;5.56;98.90;97979.38;4283488;28;21238;-67
2022/04/08 11:26:47;;;;;;;1.50;1.00;;;;;;;5.81;99.75;97997.72;4299102;28;20223;-67
2022/04/08 11:29:16;;;;;;;3.83;1.37;;;;;;;6.00;99.91;98004.41;4214151;28;20271;-67
2022/04/08 11:31:44;;;;;;;2.17;1.00;;;;;;;5.71;96.57;98006.69;4208896;28;20684;-67
2022/04/08 11:34:13;;;;;;;1.50;1.13;;;;;;;5.83;97.04;98009.75;4225939;28;20245;-66
2022/04/08 11:36:40;;;;;;;2.00;1.20;;;;;;;5.60;96.54;98007.06;4194434;28;24900;-69
2022/04/08 11:39:08;;;;;;;1.60;1.20;;;;;;;5.59;97.35;98001.97;4210960;28;20239;-66
2022/04/08 11:41:36;;;;;;;1.77;1.20;;;;;;;5.70;98.06;98006.84;4219549;28;22766;-67
2022/04/08 11:44:04;;;;;;;2.30;1.20;;;;;;;6.02;96.97;98020.88;4323969;28;20257;-66
2022/04/08 11:46:31;;;;;;;2.40;1.47;;;;;;;6.34;96.32;98030.34;4333089;28;20291;-66